Time;durP1;ratioP1;P1;durP2;ratioP2;P2;SDS_P1;SDS_P2;PMS_P1;PMS_P2;Temp;Humidity;BMP_temperature;BMP_pressure;BME280_temperature;BME280_humidity;BME280_pressure;Samples;Min_cycle;Max_cycle;Signal;HPM_P1;HPM_P2
2024/02/28 00:00:07;;;;;;;36.85;22.90;;;;;6.60;98626.00;;;;4841999;29;20504;-71
2024/02/28 00:02:34;;;;;;;36.50;22.80;;;;;6.50;98624.00;;;;4841909;29;20046;-71
2024/02/28 00:05:00;;;;;;;35.28;22.23;;;;;6.50;98623.00;;;;4826833;29;20389;-71
2024/02/28 00:07:27;;;;;;;34.67;22.88;;;;;6.60;98630.00;;;;4842981;29;20058;-71
2024/02/28 00:09:57;;;;;;;35.88;22.75;;;;;6.60;98618.00;;;;4843068;29;20052;-71
2024/02/28 00:12:26;;;;;;;30.77;20.75;;;;;6.50;98614.00;;;;4843560;29;20522;-71
2024/02/28 00:14:53;;;;;;;32.97;22.67;;;;;6.50;98612.00;;;;4842659;29;20502;-70
2024/02/28 00:17:20;;;;;;;32.30;22.17;;;;;6.50;98616.00;;;;4843372;29;20073;-70
2024/02/28 00:19:46;;;;;;;36.78;23.38;;;;;6.40;98613.00;;;;4842441;29;20049;-70
2024/02/28 00:22:13;;;;;;;36.97;23.88;;;;;6.50;98605.00;;;;4852201;29;20522;-70
2024/02/28 00:24:40;;;;;;;33.13;23.55;;;;;6.50;98617.00;;;;4863029;29;20053;-70
2024/02/28 00:27:07;;;;;;;36.92;22.95;;;;;6.50;98621.00;;;;4862995;29;20073;-70
2024/02/28 00:29:33;;;;;;;34.50;22.77;;;;;6.40;98624.00;;;;4861850;29;20064;-70
2024/02/28 00:32:00;;;;;;;39.90;24.65;;;;;6.50;98620.00;;;;4844959;29;20072;-70
2024/02/28 00:34:27;;;;;;;36.65;22.58;;;;;6.40;98614.00;;;;4844910;29;20392;-70
2024/02/28 00:36:53;;;;;;;33.97;22.25;;;;;6.40;98634.00;;;;4861359;29;20050;-71
2024/02/28 00:39:22;;;;;;;30.73;20.98;;;;;6.40;98629.00;;;;4859966;29;20149;-71
2024/02/28 00:41:49;;;;;;;29.00;20.75;;;;;6.30;98633.00;;;;4844698;29;20424;-70
2024/02/28 00:44:16;;;;;;;30.33;20.95;;;;;6.20;98640.00;;;;4861120;29;20133;-70
2024/02/28 00:46:42;;;;;;;30.05;19.33;;;;;6.00;98637.00;;;;4861695;29;20132;-70
2024/02/28 00:49:09;;;;;;;28.98;20.58;;;;;5.90;98640.00;;;;4860836;29;20064;-72
2024/02/28 00:51:37;;;;;;;31.17;21.42;;;;;5.80;98636.00;;;;4861818;29;20049;-71
2024/02/28 00:54:03;;;;;;;31.70;21.08;;;;;5.70;98645.00;;;;4860371;29;20116;-71
2024/02/28 00:56:30;;;;;;;35.50;21.45;;;;;5.50;98643.00;;;;4859852;29;20053;-71
2024/02/28 00:58:57;;;;;;;36.28;21.80;;;;;5.50;98645.00;;;;4844556;29;20057;-71
2024/02/28 01:01:23;;;;;;;35.38;22.33;;;;;5.40;98648.00;;;;4859771;29;20144;-71
2024/02/28 01:03:50;;;;;;;34.53;20.70;;;;;5.40;98656.00;;;;4860945;29;20041;-71
2024/02/28 01:06:17;;;;;;;33.55;22.40;;;;;5.40;98640.00;;;;4859696;29;20101;-71
2024/02/28 01:08:43;;;;;;;34.05;22.83;;;;;5.30;98647.00;;;;4859679;29;20414;-72
2024/02/28 01:11:10;;;;;;;33.38;22.30;;;;;5.30;98656.00;;;;4859610;29;20415;-71
2024/02/28 01:13:37;;;;;;;34.97;22.23;;;;;5.20;98658.00;;;;4860708;29;20045;-71
2024/02/28 01:16:04;;;;;;;33.60;22.42;;;;;5.20;98657.00;;;;4861363;29;20231;-71
2024/02/28 01:18:32;;;;;;;32.70;20.98;;;;;5.20;98658.00;;;;4860771;29;20088;-71
2024/02/28 01:20:59;;;;;;;34.55;21.58;;;;;5.20;98654.00;;;;4859611;29;20160;-72
2024/02/28 01:23:25;;;;;;;35.72;20.83;;;;;5.10;98659.00;;;;4860618;29;20091;-71
2024/02/28 01:25:52;;;;;;;36.08;22.48;;;;;5.20;98659.00;;;;4859606;29;20581;-71
2024/02/28 01:28:18;;;;;;;33.95;22.13;;;;;5.20;98656.00;;;;4860728;29;20049;-71
2024/02/28 01:30:45;;;;;;;34.40;21.48;;;;;5.10;98655.00;;;;4861223;29;20056;-71
2024/02/28 01:33:13;;;;;;;37.30;22.50;;;;;5.00;98642.00;;;;4860872;29;20045;-68
2024/02/28 01:35:40;;;;;;;37.83;22.98;;;;;4.90;98645.00;;;;4861193;29;20476;-68
2024/02/28 01:38:07;;;;;;;33.83;21.83;;;;;4.90;98655.00;;;;4860611;29;20575;-67
2024/02/28 01:40:33;;;;;;;34.90;21.73;;;;;4.80;98655.00;;;;4859440;29;20056;-67
2024/02/28 01:43:18;;;;;;;34.30;21.73;;;;;4.80;98656.00;;;;4860394;29;20049;-68
2024/02/28 01:45:44;;;;;;;40.53;22.42;;;;;4.90;98664.00;;;;4861972;29;20084;-68
2024/02/28 01:48:12;;;;;;;34.72;21.92;;;;;4.90;98665.00;;;;4862666;29;20046;-67
2024/02/28 01:50:39;;;;;;;34.38;20.95;;;;;4.90;98670.00;;;;4863027;29;20495;-67
2024/02/28 01:53:08;;;;;;;30.80;18.80;;;;;4.90;98671.00;;;;4862517;29;20050;-67
2024/02/28 01:55:36;;;;;;;29.42;18.50;;;;;4.90;98659.00;;;;4863728;29;20061;-67
2024/02/28 01:58:05;;;;;;;31.08;20.05;;;;;4.90;98656.00;;;;4863738;29;20053;-68
2024/02/28 02:00:36;;;;;;;31.00;19.38;;;;;4.90;98662.00;;;;4862439;29;20471;-67
2024/02/28 02:03:03;;;;;;;31.70;20.35;;;;;4.70;98661.00;;;;4862984;29;20503;-68
2024/02/28 02:05:30;;;;;;;28.65;18.17;;;;;4.60;98665.00;;;;4862765;29;20124;-71
2024/02/28 02:08:01;;;;;;;32.92;19.52;;;;;4.40;98662.00;;;;4847574;29;20054;-71
2024/02/28 02:10:28;;;;;;;32.03;19.23;;;;;4.40;98670.00;;;;4863793;29;20053;-72
2024/02/28 02:13:07;;;;;;;29.52;20.23;;;;;4.40;98658.00;;;;4863863;29;20054;-71
2024/02/28 02:15:34;;;;;;;27.23;17.60;;;;;4.60;98665.00;;;;4863758;29;20041;-72
2024/02/28 02:18:01;;;;;;;30.92;18.83;;;;;4.70;98666.00;;;;4863649;29;20102;-72
2024/02/28 02:20:31;;;;;;;31.23;18.20;;;;;4.60;98677.00;;;;4863462;29;20045;-72
2024/02/28 02:22:58;;;;;;;28.70;17.67;;;;;4.50;98660.00;;;;4863394;29;20053;-72
2024/02/28 02:25:24;;;;;;;32.78;18.70;;;;;4.40;98660.00;;;;4846758;29;20045;-72
2024/02/28 02:27:51;;;;;;;26.90;18.35;;;;;4.40;98663.00;;;;4862123;29;20042;-72
2024/02/28 02:30:18;;;;;;;27.60;17.50;;;;;4.30;98666.00;;;;4861990;29;20541;-72
2024/02/28 02:32:44;;;;;;;27.80;18.13;;;;;4.30;98671.00;;;;4861953;29;20045;-71
2024/02/28 02:35:11;;;;;;;27.90;17.52;;;;;4.30;98675.00;;;;4861805;29;20574;-71
2024/02/28 02:37:38;;;;;;;29.95;19.05;;;;;4.30;98678.00;;;;4863065;29;20523;-72
2024/02/28 02:40:04;;;;;;;29.85;18.58;;;;;4.20;98668.00;;;;4861857;29;20088;-72
2024/02/28 02:42:31;;;;;;;27.05;17.17;;;;;4.10;98670.00;;;;4863071;29;20045;-71
2024/02/28 02:44:58;;;;;;;28.25;17.65;;;;;4.10;98673.00;;;;4862003;29;20117;-72
2024/02/28 02:47:24;;;;;;;27.23;17.00;;;;;4.00;98674.00;;;;4862177;29;20415;-69
2024/02/28 02:49:51;;;;;;;26.25;16.88;;;;;4.00;98675.00;;;;4862930;29;20447;-69
2024/02/28 02:52:17;;;;;;;29.48;18.17;;;;;3.90;98671.00;;;;4862793;29;20080;-69
2024/02/28 02:54:44;;;;;;;32.47;18.90;;;;;3.70;98675.00;;;;4862710;29;20052;-70
2024/02/28 02:57:11;;;;;;;29.67;18.58;;;;;3.60;98673.00;;;;4861928;29;20055;-71
2024/02/28 02:59:37;;;;;;;31.35;19.58;;;;;3.40;98672.00;;;;4862911;29;20076;-71
2024/02/28 03:02:04;;;;;;;34.42;19.92;;;;;3.40;98676.00;;;;4862925;29;20100;-71
2024/02/28 03:04:30;;;;;;;39.78;21.38;;;;;3.40;98675.00;;;;4863134;29;20498;-72
2024/02/28 03:06:57;;;;;;;38.10;20.25;;;;;3.40;98680.00;;;;4862892;29;20105;-72
2024/02/28 03:09:24;;;;;;;41.70;21.27;;;;;3.40;98678.00;;;;4847103;29;20072;-72
2024/02/28 03:11:51;;;;;;;42.17;21.90;;;;;3.30;98672.00;;;;4847596;29;20436;-71
2024/02/28 03:14:18;;;;;;;38.33;21.80;;;;;3.30;98678.00;;;;4863594;29;20057;-71
2024/02/28 03:16:45;;;;;;;39.90;21.77;;;;;3.30;98690.00;;;;4862814;29;20132;-71
2024/02/28 03:19:12;;;;;;;43.00;23.33;;;;;3.40;98692.00;;;;4862591;29;20050;-71
2024/02/28 03:21:38;;;;;;;48.97;25.83;;;;;3.40;98690.00;;;;4843686;29;20061;-71
2024/02/28 03:24:05;;;;;;;61.33;27.73;;;;;3.60;98693.00;;;;4842861;29;20110;-71
2024/02/28 03:26:32;;;;;;;63.40;27.58;;;;;3.60;98700.00;;;;4842705;29;20099;-72
2024/02/28 03:28:59;;;;;;;54.63;23.73;;;;;3.60;98694.00;;;;4842902;29;20500;-71
2024/02/28 03:31:26;;;;;;;62.05;23.75;;;;;3.50;98697.00;;;;4842777;29;20053;-71
2024/02/28 03:33:54;;;;;;;41.75;22.98;;;;;3.40;98694.00;;;;4827226;29;20140;-71
2024/02/28 03:36:20;;;;;;;48.13;24.60;;;;;3.50;98675.00;;;;4842444;29;20068;-71
2024/02/28 03:38:47;;;;;;;48.78;22.65;;;;;3.50;98695.00;;;;4827263;29;20053;-71
2024/02/28 03:41:14;;;;;;;50.60;24.38;;;;;3.40;98694.00;;;;4827309;29;20153;-71
2024/02/28 03:43:41;;;;;;;56.17;23.50;;;;;3.50;98697.00;;;;4843215;29;20037;-71
2024/02/28 03:46:07;;;;;;;81.47;24.92;;;;;3.50;98709.00;;;;4843398;29;20487;-72
2024/02/28 03:48:34;;;;;;;59.92;24.15;;;;;3.40;98710.00;;;;4842243;29;20056;-72
2024/02/28 03:51:01;;;;;;;52.53;23.23;;;;;3.40;98710.00;;;;4843493;29;20519;-72
2024/02/28 03:53:27;;;;;;;51.35;25.17;;;;;3.50;98717.00;;;;4857058;29;20054;-71
2024/02/28 03:55:54;;;;;;;51.30;23.42;;;;;3.60;98722.00;;;;4842143;29;20046;-71
2024/02/28 03:58:21;;;;;;;55.40;24.50;;;;;3.60;98727.00;;;;4844320;29;20136;-71
2024/02/28 04:00:47;;;;;;;47.20;24.67;;;;;3.60;98723.00;;;;4843812;29;20145;-70
2024/02/28 04:03:14;;;;;;;54.83;24.90;;;;;3.60;98733.00;;;;4843411;29;20110;-70
2024/02/28 04:05:41;;;;;;;48.67;24.90;;;;;3.50;98731.00;;;;4842674;29;20415;-73
2024/02/28 04:08:08;;;;;;;51.13;24.58;;;;;3.70;98727.00;;;;4843717;29;20076;-72
2024/02/28 04:10:35;;;;;;;49.47;23.75;;;;;3.70;98739.00;;;;4844479;29;20056;-72
2024/02/28 04:13:01;;;;;;;49.75;24.48;;;;;3.70;98733.00;;;;4843323;29;20058;-71
2024/02/28 04:15:29;;;;;;;90.18;24.60;;;;;3.70;98741.00;;;;4844756;29;20064;-68
2024/02/28 04:17:56;;;;;;;118.35;28.27;;;;;3.60;98749.00;;;;4846695;29;20452;-68
2024/02/28 04:20:23;;;;;;;73.28;24.77;;;;;3.40;98750.00;;;;4845954;29;20178;-68
2024/02/28 04:22:49;;;;;;;51.28;24.90;;;;;3.30;98748.00;;;;4858164;29;20148;-68
2024/02/28 04:25:16;;;;;;;64.68;25.88;;;;;3.20;98744.00;;;;4862355;29;20141;-68
2024/02/28 04:27:43;;;;;;;66.03;27.98;;;;;3.30;98739.00;;;;4848865;29;20143;-68
2024/02/28 04:30:10;;;;;;;52.72;25.50;;;;;3.40;98738.00;;;;4866073;29;20057;-68
2024/02/28 04:32:38;;;;;;;48.55;24.42;;;;;3.40;98752.00;;;;4864621;29;20045;-68
2024/02/28 04:35:04;;;;;;;66.82;25.27;;;;;3.50;98755.00;;;;4863428;29;20043;-68
2024/02/28 04:37:31;;;;;;;135.35;29.25;;;;;3.30;98764.00;;;;4862832;29;20136;-68
2024/02/28 04:39:57;;;;;;;80.88;25.17;;;;;3.40;98761.00;;;;4860650;29;20045;-68
2024/02/28 04:42:24;;;;;;;121.78;27.88;;;;;3.20;98768.00;;;;4860976;29;20053;-69
2024/02/28 04:44:51;;;;;;;145.63;29.80;;;;;3.10;98763.00;;;;4860307;29;20041;-68
2024/02/28 04:47:17;;;;;;;62.90;26.20;;;;;3.00;98764.00;;;;4861121;29;20053;-69
2024/02/28 04:49:51;;;;;;;;;;;;;3.10;98777.00;;;;4861561;29;20503;-68
2024/02/28 04:52:18;;;;;;;77.13;24.60;;;;;3.00;98769.00;;;;4861004;29;19971;-69
2024/02/28 04:54:49;;;;;;;103.07;25.63;;;;;2.90;98783.00;;;;4861345;29;20472;-68
2024/02/28 04:57:15;;;;;;;111.53;28.83;;;;;2.80;98784.00;;;;4859938;29;20133;-69
2024/02/28 04:59:46;;;;;;;99.05;26.08;;;;;2.80;98784.00;;;;4860161;29;20050;-69
2024/02/28 05:02:13;;;;;;;93.03;26.27;;;;;2.80;98794.00;;;;4860837;29;20422;-68
2024/02/28 05:04:39;;;;;;;175.50;30.23;;;;;2.80;98788.00;;;;4860928;29;20064;-67
2024/02/28 05:07:07;;;;;;;64.50;26.10;;;;;2.90;98804.00;;;;4860464;29;20096;-67
2024/02/28 05:09:34;;;;;;;88.55;25.75;;;;;2.90;98785.00;;;;4861626;29;20045;-67
2024/02/28 05:12:01;;;;;;;86.80;28.42;;;;;2.90;98791.00;;;;4861374;29;20049;-67
2024/02/28 05:14:28;;;;;;;63.67;24.75;;;;;3.10;98799.00;;;;4844364;29;20507;-68
2024/02/28 05:16:54;;;;;;;62.10;24.38;;;;;3.10;98792.00;;;;4859705;29;20073;-68
2024/02/28 05:19:21;;;;;;;74.55;25.15;;;;;3.20;98800.00;;;;4861912;29;20049;-68
2024/02/28 05:21:50;;;;;;;66.80;25.58;;;;;3.20;98791.00;;;;4863827;29;20049;-68
2024/02/28 05:24:17;;;;;;;159.00;30.02;;;;;3.20;98802.00;;;;4862987;29;20060;-68
2024/02/28 05:26:44;;;;;;;105.20;26.55;;;;;3.20;98795.00;;;;4864444;29;20052;-68
2024/02/28 05:29:11;;;;;;;49.28;24.63;;;;;3.30;98794.00;;;;4865079;29;20048;-68
2024/02/28 05:31:38;;;;;;;88.82;25.95;;;;;3.50;98803.00;;;;4864295;29;20069;-68
2024/02/28 05:34:04;;;;;;;54.20;24.30;;;;;3.50;98809.00;;;;4864864;29;20063;-67
2024/02/28 05:36:31;;;;;;;53.42;24.27;;;;;3.60;98812.00;;;;4863225;29;20053;-68
2024/02/28 05:39:01;;;;;;;91.30;25.33;;;;;3.70;98808.00;;;;4863629;29;20132;-67
2024/02/28 05:41:28;;;;;;;50.72;23.50;;;;;3.60;98809.00;;;;4864524;29;20136;-70
2024/02/28 05:43:55;;;;;;;53.47;26.13;;;;;3.50;98812.00;;;;4863458;29;20125;-70
2024/02/28 05:46:22;;;;;;;77.72;28.02;;;;;3.80;98806.00;;;;4863337;29;20049;-70
2024/02/28 05:48:48;;;;;;;57.28;26.48;;;;;4.00;98815.00;;;;4864494;29;20054;-67
2024/02/28 05:51:15;;;;;;;53.13;27.83;;;;;3.90;98828.00;;;;4848073;29;20129;-71
2024/02/28 05:53:45;;;;;;;105.22;29.52;;;;;3.90;98826.00;;;;4864314;29;20049;-72
2024/02/28 05:56:19;;;;;;;54.80;28.40;;;;;3.80;98832.00;;;;4864254;29;20128;-69
2024/02/28 05:58:47;;;;;;;50.47;25.10;;;;;3.90;98836.00;;;;4847876;29;20053;-71
2024/02/28 06:01:18;;;;;;;48.42;25.35;;;;;4.00;98845.00;;;;4863014;29;20057;-71
2024/02/28 06:03:47;;;;;;;196.55;30.88;;;;;4.00;98836.00;;;;4863850;29;20041;-70
2024/02/28 06:06:13;;;;;;;54.10;28.00;;;;;3.90;98847.00;;;;4848771;29;20080;-67
2024/02/28 06:08:40;;;;;;;62.45;30.52;;;;;3.70;98836.00;;;;4864720;29;20507;-67
2024/02/28 06:11:07;;;;;;;97.47;29.55;;;;;3.80;98836.00;;;;4862613;29;20056;-67
2024/02/28 06:13:34;;;;;;;64.47;28.60;;;;;3.90;98843.00;;;;4863616;29;20530;-68
2024/02/28 06:16:00;;;;;;;56.90;28.23;;;;;4.00;98847.00;;;;4862260;29;20097;-69
2024/02/28 06:18:27;;;;;;;58.53;29.60;;;;;4.00;98852.00;;;;4863110;29;20077;-69
2024/02/28 06:20:55;;;;;;;63.72;28.77;;;;;4.10;98858.00;;;;4846931;29;20054;-69
2024/02/28 06:23:23;;;;;;;59.83;28.58;;;;;4.20;98862.00;;;;4862419;29;20144;-69
2024/02/28 06:25:56;;;;;;;74.53;27.77;;;;;4.30;98865.00;;;;4862937;29;20510;-68
2024/02/28 06:28:22;;;;;;;63.58;29.95;;;;;4.20;98870.00;;;;4846800;29;20056;-69
2024/02/28 06:30:49;;;;;;;239.63;33.08;;;;;4.10;98874.00;;;;4847164;29;20057;-68
2024/02/28 06:33:16;;;;;;;94.18;28.95;;;;;3.90;98889.00;;;;4862367;29;20140;-69
2024/02/28 06:35:42;;;;;;;104.13;29.50;;;;;3.80;98877.00;;;;4862143;29;20041;-69
2024/02/28 06:38:09;;;;;;;157.73;30.35;;;;;3.70;98896.00;;;;4846475;29;20046;-69
2024/02/28 06:40:36;;;;;;;65.40;28.17;;;;;3.60;98902.00;;;;4862157;29;20041;-68
2024/02/28 06:43:03;;;;;;;124.53;29.90;;;;;3.60;98908.00;;;;4861445;29;20057;-68
2024/02/28 06:45:29;;;;;;;172.18;29.88;;;;;3.70;98909.00;;;;4863372;29;20123;-68
2024/02/28 06:47:57;;;;;;;138.60;29.50;;;;;3.80;98899.00;;;;4847791;29;20068;-68
2024/02/28 06:50:24;;;;;;;101.53;27.73;;;;;4.00;98898.00;;;;4846270;29;20050;-68
2024/02/28 06:52:53;;;;;;;91.10;27.75;;;;;4.20;98910.00;;;;4861730;29;20085;-69
2024/02/28 06:55:20;;;;;;;62.50;26.92;;;;;4.30;98911.00;;;;4862193;29;20053;-69
2024/02/28 06:57:47;;;;;;;59.25;26.75;;;;;4.50;98915.00;;;;4862036;29;20049;-69
2024/02/28 07:00:15;;;;;;;142.77;28.55;;;;;4.40;98919.00;;;;4846202;29;20101;-68
2024/02/28 07:02:43;;;;;;;171.68;30.55;;;;;4.30;98927.00;;;;4862511;29;20054;-69
2024/02/28 07:05:10;;;;;;;120.47;30.08;;;;;4.10;98915.00;;;;4846068;29;20495;-69
2024/02/28 07:07:36;;;;;;;122.75;29.83;;;;;4.00;98912.00;;;;4846948;29;20054;-67
2024/02/28 07:10:04;;;;;;;85.65;27.85;;;;;4.10;98920.00;;;;4861380;29;20513;-67
2024/02/28 07:12:31;;;;;;;97.50;28.00;;;;;4.00;98919.00;;;;4846457;29;20145;-68
2024/02/28 07:14:58;;;;;;;58.88;28.40;;;;;4.10;98929.00;;;;4846169;29;20495;-69
2024/02/28 07:17:25;;;;;;;68.15;26.50;;;;;4.40;98924.00;;;;4862637;29;20049;-70
2024/02/28 07:19:52;;;;;;;75.60;26.42;;;;;4.50;98934.00;;;;4861373;29;20049;-71
2024/02/28 07:22:18;;;;;;;73.85;25.52;;;;;4.60;98930.00;;;;4843213;29;20118;-70
2024/02/28 07:24:45;;;;;;;72.50;27.55;;;;;4.60;98928.00;;;;4844491;29;20098;-70
2024/02/28 07:27:12;;;;;;;79.70;26.35;;;;;4.60;98933.00;;;;4844321;29;20049;-70
2024/02/28 07:29:38;;;;;;;71.72;25.00;;;;;4.60;98932.00;;;;4843975;29;20456;-67
2024/02/28 07:32:05;;;;;;;74.63;26.52;;;;;4.70;98944.00;;;;4843562;29;20049;-68
2024/02/28 07:34:33;;;;;;;146.50;28.92;;;;;4.70;98936.00;;;;4844703;29;20050;-67
2024/02/28 07:37:00;;;;;;;77.85;24.15;;;;;4.70;98931.00;;;;4845087;29;20407;-68
2024/02/28 07:39:27;;;;;;;97.82;23.20;;;;;4.60;98931.00;;;;4846395;29;20495;-68
2024/02/28 07:41:54;;;;;;;89.53;24.70;;;;;4.60;98937.00;;;;4843792;29;20405;-68
2024/02/28 07:44:22;;;;;;;59.17;22.70;;;;;4.70;98926.00;;;;4843455;29;20049;-67
2024/02/28 07:46:50;;;;;;;48.20;22.85;;;;;4.80;98930.00;;;;4843642;29;20434;-67
2024/02/28 07:49:18;;;;;;;123.95;23.88;;;;;4.80;98928.00;;;;4843620;29;20053;-67
2024/02/28 07:51:44;;;;;;;59.20;21.95;;;;;4.60;98921.00;;;;4847975;29;20455;-68
2024/02/28 07:54:11;;;;;;;49.00;23.85;;;;;4.50;98934.00;;;;4861608;29;20134;-67
2024/02/28 07:56:38;;;;;;;47.72;23.73;;;;;4.60;98933.00;;;;4861502;29;20575;-67
2024/02/28 07:59:04;;;;;;;47.90;23.30;;;;;4.80;98929.00;;;;4862228;29;20480;-68
2024/02/28 08:01:31;;;;;;;41.70;22.13;;;;;4.90;98939.00;;;;4862869;29;20052;-68
2024/02/28 08:03:59;;;;;;;40.80;20.90;;;;;5.00;98942.00;;;;4862149;29;20060;-68
2024/02/28 08:06:26;;;;;;;123.38;23.85;;;;;4.80;98951.00;;;;4861684;29;20052;-68
2024/02/28 08:08:53;;;;;;;47.83;22.33;;;;;4.70;98950.00;;;;4861036;29;20427;-68
2024/02/28 08:11:19;;;;;;;97.30;24.42;;;;;4.50;98958.00;;;;4861604;29;20392;-68
2024/02/28 08:13:46;;;;;;;169.68;29.15;;;;;4.30;98951.00;;;;4860230;29;20050;-68
2024/02/28 08:16:13;;;;;;;98.05;23.60;;;;;4.30;98952.00;;;;4861286;29;20057;-68
2024/02/28 08:18:39;;;;;;;73.60;22.27;;;;;4.40;98945.00;;;;4861329;29;20136;-68
2024/02/28 08:21:06;;;;;;;63.15;22.92;;;;;4.50;98952.00;;;;4861441;29;20053;-68
2024/02/28 08:23:33;;;;;;;112.30;24.42;;;;;4.70;98954.00;;;;4861105;29;20053;-68
2024/02/28 08:25:59;;;;;;;54.67;22.58;;;;;4.70;98957.00;;;;4861466;29;20052;-68
2024/02/28 08:28:26;;;;;;;44.50;22.73;;;;;4.80;98947.00;;;;4861290;29;20414;-68
2024/02/28 08:30:53;;;;;;;79.07;25.50;;;;;5.20;98951.00;;;;4859927;29;20086;-68
2024/02/28 08:33:19;;;;;;;65.63;23.75;;;;;5.40;98961.00;;;;4870034;24;20046;-73
2024/02/28 08:35:51;;;;;;;47.58;22.35;;;;;5.40;98954.00;;;;4850153;29;20495;-73
2024/02/28 08:38:18;;;;;;;56.58;23.77;;;;;5.10;98954.00;;;;4860100;29;20392;-73
2024/02/28 08:40:45;;;;;;;53.70;23.88;;;;;5.00;98957.00;;;;4860063;29;20105;-72
2024/02/28 08:43:12;;;;;;;54.22;25.45;;;;;5.10;98963.00;;;;4861087;29;20061;-72
2024/02/28 08:45:39;;;;;;;51.45;24.65;;;;;5.20;98964.00;;;;4861361;29;20383;-72
2024/02/28 08:48:07;;;;;;;88.88;24.95;;;;;5.20;98975.00;;;;4860056;29;20573;-72
2024/02/28 08:50:34;;;;;;;48.78;24.30;;;;;5.10;98966.00;;;;4861321;29;20102;-72
2024/02/28 08:53:01;;;;;;;62.20;23.05;;;;;5.30;98975.00;;;;4861197;29;20137;-72
2024/02/28 08:55:28;;;;;;;43.47;22.20;;;;;5.20;98971.00;;;;4863681;29;20077;-72
2024/02/28 08:57:55;;;;;;;50.33;23.10;;;;;5.40;98969.00;;;;4879536;29;20049;-72
2024/02/28 09:00:22;;;;;;;45.17;23.27;;;;;5.60;98965.00;;;;4848684;29;20049;-71
2024/02/28 09:02:49;;;;;;;51.63;25.65;;;;;5.90;98978.00;;;;4864801;29;20105;-73
2024/02/28 09:05:16;;;;;;;44.97;23.80;;;;;6.00;98990.00;;;;4865206;29;20053;-73
2024/02/28 09:07:42;;;;;;;50.35;24.17;;;;;6.10;98987.00;;;;4863621;29;20498;-73
2024/02/28 09:10:10;;;;;;;46.08;23.02;;;;;6.30;98995.00;;;;4879025;29;20097;-73
2024/02/28 09:12:37;;;;;;;45.83;22.25;;;;;6.40;99006.00;;;;4864827;29;20060;-73
2024/02/28 09:15:04;;;;;;;45.08;22.92;;;;;6.50;99020.00;;;;4863544;29;20101;-72
2024/02/28 09:17:31;;;;;;;46.75;24.02;;;;;6.40;99018.00;;;;4863166;29;20050;-72
2024/02/28 09:20:00;;;;;;;54.42;24.98;;;;;6.40;99023.00;;;;4863445;29;20045;-72
2024/02/28 09:22:27;;;;;;;45.63;22.90;;;;;6.50;99031.00;;;;4878630;29;20046;-72
2024/02/28 09:24:54;;;;;;;54.60;23.88;;;;;6.60;99031.00;;;;4864264;29;20053;-71
2024/02/28 09:27:21;;;;;;;45.92;23.77;;;;;6.50;99038.00;;;;4863586;29;20050;-71
2024/02/28 09:29:48;;;;;;;48.17;23.10;;;;;6.60;99032.00;;;;4878558;29;20558;-70
2024/02/28 09:32:14;;;;;;;47.65;24.00;;;;;6.60;99023.00;;;;4864241;29;20080;-70
2024/02/28 09:34:41;;;;;;;41.08;22.33;;;;;6.70;99032.00;;;;4867164;29;20054;-70
2024/02/28 09:37:08;;;;;;;47.75;24.35;;;;;6.80;99026.00;;;;4846021;29;20133;-70
2024/02/28 09:39:38;;;;;;;44.97;23.77;;;;;6.80;99023.00;;;;4844677;29;20050;-70
2024/02/28 09:42:06;;;;;;;42.78;22.08;;;;;6.90;99039.00;;;;4844946;29;20056;-70
2024/02/28 09:44:34;;;;;;;43.72;21.52;;;;;7.00;99029.00;;;;4845518;29;20507;-70
2024/02/28 09:47:00;;;;;;;45.47;23.23;;;;;7.10;99028.00;;;;4844574;29;20042;-70
2024/02/28 09:49:30;;;;;;;41.83;21.83;;;;;7.30;99024.00;;;;4845467;29;20053;-70
2024/02/28 09:51:58;;;;;;;42.60;21.98;;;;;7.30;99021.00;;;;4844269;29;20141;-70
2024/02/28 09:54:25;;;;;;;42.95;22.52;;;;;7.40;99030.00;;;;4844270;29;20065;-70
2024/02/28 09:56:52;;;;;;;39.28;22.60;;;;;7.40;99040.00;;;;4845250;29;20518;-70
2024/02/28 09:59:20;;;;;;;45.33;23.02;;;;;7.40;99038.00;;;;4845548;29;20056;-71
2024/02/28 10:01:57;;;;;;;42.20;22.70;;;;;7.50;99038.00;;;;4845693;29;20042;-71
2024/02/28 10:04:26;;;;;;;44.05;23.15;;;;;7.50;99032.00;;;;4845238;29;20499;-70
2024/02/28 10:06:52;;;;;;;42.10;22.50;;;;;7.40;99044.00;;;;4859269;29;20053;-70
2024/02/28 10:09:19;;;;;;;45.08;22.58;;;;;7.60;99048.00;;;;4845314;29;20054;-70
2024/02/28 10:11:48;;;;;;;44.38;23.27;;;;;7.70;99053.00;;;;4844133;29;20495;-70
2024/02/28 10:14:19;;;;;;;40.92;22.77;;;;;7.70;99062.00;;;;4845325;29;20529;-70
2024/02/28 10:16:46;;;;;;;46.65;24.15;;;;;7.80;99059.00;;;;4845395;29;20554;-70
2024/02/28 10:19:12;;;;;;;41.17;23.23;;;;;7.70;99048.00;;;;4859378;29;20227;-70
2024/02/28 10:21:39;;;;;;;49.30;27.55;;;;;7.70;99049.00;;;;4859209;29;20046;-70
2024/02/28 10:24:06;;;;;;;45.38;24.40;;;;;7.70;99054.00;;;;4844942;29;20511;-70
2024/02/28 10:26:42;;;;;;;44.47;25.88;;;;;7.90;99056.00;;;;4845004;29;20063;-70
2024/02/28 10:29:09;;;;;;;45.30;23.85;;;;;8.00;99062.00;;;;4844910;29;20081;-70
2024/02/28 10:31:37;;;;;;;45.25;24.17;;;;;8.20;99060.00;;;;4845030;29;20463;-69
2024/02/28 10:34:05;;;;;;;41.03;23.92;;;;;8.30;99063.00;;;;4854922;29;20054;-69
2024/02/28 10:36:32;;;;;;;42.78;23.00;;;;;8.50;99059.00;;;;4843421;29;20555;-69
2024/02/28 10:39:00;;;;;;;42.90;23.88;;;;;8.60;99069.00;;;;4844699;29;20046;-70
2024/02/28 10:41:28;;;;;;;44.58;23.73;;;;;8.70;99071.00;;;;4844968;29;20517;-67
2024/02/28 10:43:54;;;;;;;43.03;24.80;;;;;8.90;99066.00;;;;4859529;29;20054;-67
2024/02/28 10:46:21;;;;;;;44.25;24.10;;;;;9.00;99069.00;;;;4846280;29;20441;-67
2024/02/28 10:49:02;;;;;;;43.67;25.10;;;;;9.10;99075.00;;;;4859890;29;20123;-67
2024/02/28 10:51:37;;;;;;;40.67;22.85;;;;;9.20;99077.00;;;;4829438;29;20054;-67
2024/02/28 10:54:09;;;;;;;44.65;24.67;;;;;9.30;99069.00;;;;4847283;29;20049;-67
2024/02/28 10:56:37;;;;;;;42.78;24.80;;;;;9.30;99073.00;;;;4845150;29;20081;-69
2024/02/28 10:59:06;;;;;;;49.28;26.50;;;;;9.50;99071.00;;;;4843214;29;20049;-69
2024/02/28 11:01:38;;;;;;;44.50;24.83;;;;;9.60;99079.00;;;;4843178;29;20064;-68
2024/02/28 11:04:05;;;;;;;43.22;24.75;;;;;9.80;99075.00;;;;4845149;29;20120;-67
2024/02/28 11:06:32;;;;;;;45.28;25.67;;;;;9.90;99075.00;;;;4863444;29;20054;-67
2024/02/28 11:09:00;;;;;;;44.50;25.30;;;;;10.10;99076.00;;;;4847835;29;20495;-67
2024/02/28 11:11:33;;;;;;;47.88;26.13;;;;;10.20;99068.00;;;;4859233;29;20130;-68
2024/02/28 11:14:00;;;;;;;41.92;24.73;;;;;10.30;99069.00;;;;4844961;29;20137;-68
2024/02/28 11:16:32;;;;;;;46.72;25.55;;;;;10.40;99075.00;;;;4843814;29;20106;-68
2024/02/28 11:19:01;;;;;;;40.45;24.40;;;;;10.50;99063.00;;;;4858188;29;20073;-68
2024/02/28 11:21:28;;;;;;;44.75;24.77;;;;;10.30;99064.00;;;;4858188;29;20072;-68
2024/02/28 11:23:59;;;;;;;57.65;32.80;;;;;10.20;99069.00;;;;4844374;29;20053;-68
2024/02/28 11:26:27;;;;;;;41.65;25.30;;;;;9.80;99073.00;;;;4842714;29;20069;-65
2024/02/28 11:28:57;;;;;;;41.72;24.58;;;;;9.80;99077.00;;;;4858115;29;20110;-66
2024/02/28 11:31:24;;;;;;;41.00;24.20;;;;;9.80;99069.00;;;;4844111;29;20142;-66
2024/02/28 11:33:51;;;;;;;43.17;24.52;;;;;9.90;99060.00;;;;4857774;29;20072;-66
2024/02/28 11:36:19;;;;;;;42.13;24.92;;;;;10.00;99067.00;;;;4857728;29;20072;-67
2024/02/28 11:38:46;;;;;;;43.75;24.70;;;;;9.70;99063.00;;;;4842443;29;20054;-66
2024/02/28 11:41:12;;;;;;;38.83;23.55;;;;;9.70;99044.00;;;;4858103;29;20483;-66
2024/02/28 11:43:39;;;;;;;42.25;24.17;;;;;9.80;99056.00;;;;4843041;29;20064;-66
2024/02/28 11:46:18;;;;;;;35.53;22.75;;;;;9.90;99057.00;;;;4858215;29;20464;-66
2024/02/28 11:48:47;;;;;;;41.28;23.63;;;;;9.80;99055.00;;;;4843805;29;20053;-66
2024/02/28 11:51:14;;;;;;;37.03;22.58;;;;;9.80;99050.00;;;;4843599;29;20053;-66
2024/02/28 11:53:41;;;;;;;38.33;22.95;;;;;9.90;99056.00;;;;4857497;29;20526;-65
2024/02/28 11:56:10;;;;;;;40.90;23.13;;;;;9.90;99056.00;;;;4857370;29;20508;-66
2024/02/28 11:58:37;;;;;;;40.53;23.73;;;;;10.00;99049.00;;;;4857538;29;20057;-66
2024/02/28 12:01:04;;;;;;;37.92;22.85;;;;;10.10;99039.00;;;;4857481;29;20423;-66
2024/02/28 12:03:31;;;;;;;39.53;23.67;;;;;10.10;99043.00;;;;4857396;29;20098;-66
2024/02/28 12:05:59;;;;;;;33.28;20.42;;;;;10.20;99051.00;;;;4843357;29;20115;-66
2024/02/28 12:08:27;;;;;;;35.88;20.63;;;;;10.30;99041.00;;;;4857688;29;20058;-66